Terminal Aerodrome Forecast
Issued by NWS Twin Cities, MN

Home | Current Version | Previous Version | Text Only | Print | Product List | Glossary On
Versions: 1 2 3 4 5 6 7 8 9 10 11 12 13 14 15 16 17 18 19 20
560
FTUS43 KMPX 280520
TAFSTC
TAF
KSTC 280520Z 2806/2906 13002KT 1/4SM FG VV001
     FM281400 16007KT P6SM VCSH SCT025 BKN250
     FM281700 17010KT P6SM SCT200=

USA.gov is the U.S. government's official web portal to all federal, state and local government web resources and services.